createdAt,value
2023-04-24T00:00:52.656Z,76.54
2023-04-24T00:04:20.569Z,76.01
2023-04-24T00:07:30.259Z,75.56
2023-04-24T00:10:58.232Z,76.66
2023-04-24T00:14:26.118Z,74.44
2023-04-24T00:17:53.883Z,76.51
2023-04-24T00:21:21.722Z,76.07
2023-04-24T00:24:49.443Z,74.60
2023-04-24T00:27:57.394Z,76.22
2023-04-24T00:30:46.152Z,75.12
2023-04-24T00:34:13.940Z,74.39
2023-04-24T00:37:41.800Z,75.91
2023-04-24T00:41:09.577Z,76.46
2023-04-24T00:44:37.203Z,76.20
2023-04-24T00:48:04.935Z,76.34
2023-04-24T00:51:32.808Z,76.43
2023-04-24T00:55:00.710Z,74.85
2023-04-24T00:58:28.682Z,75.51
2023-04-24T01:01:56.399Z,73.93
2023-04-24T01:05:24.549Z,74.89
2023-04-24T01:08:52.412Z,75.81
2023-04-24T01:11:41.716Z,75.73
2023-04-24T01:15:10.025Z,74.80
2023-04-24T01:18:38.014Z,74.62
2023-04-24T01:22:05.746Z,75.44
2023-04-24T01:25:33.464Z,76.31
2023-04-24T01:29:01.600Z,77.11
2023-04-24T01:32:29.498Z,77.02
2023-04-24T01:35:57.285Z,75.58
2023-04-24T01:39:25.310Z,76.22
2023-04-24T01:42:53.103Z,75.45
2023-04-24T01:46:20.908Z,74.38
2023-04-24T01:49:48.608Z,72.97
2023-04-24T01:53:16.469Z,72.37
2023-04-24T01:56:44.277Z,72.45
2023-04-24T01:59:33.848Z,72.28
2023-04-24T02:03:01.913Z,73.34
2023-04-24T02:06:29.643Z,73.34
2023-04-24T02:09:57.660Z,73.40
2023-04-24T02:13:25.809Z,72.79
2023-04-24T02:16:14.646Z,74.34
2023-04-24T02:19:42.632Z,74.28
2023-04-24T02:23:10.309Z,73.49
2023-04-24T02:26:18.613Z,74.00
2023-04-24T02:29:46.535Z,74.49
2023-04-24T02:33:14.426Z,73.26
2023-04-24T02:36:42.367Z,71.99
2023-04-24T02:40:09.957Z,74.97
2023-04-24T02:43:37.889Z,74.03
2023-04-24T02:47:05.551Z,73.83
2023-04-24T02:50:33.376Z,74.46
2023-04-24T02:53:42.060Z,74.07
2023-04-24T02:56:32.692Z,74.46
2023-04-24T03:00:00.372Z,74.26
2023-04-24T03:03:09.550Z,74.87
2023-04-24T03:06:05.605Z,73.38
2023-04-24T03:09:33.291Z,74.92
2023-04-24T03:13:01.146Z,73.97
2023-04-24T03:15:49.928Z,75.21
2023-04-24T03:19:17.934Z,74.63
2023-04-24T03:22:45.698Z,74.97
2023-04-24T03:26:13.483Z,73.72
2023-04-24T03:29:21.765Z,73.37
2023-04-24T03:32:49.634Z,74.40
2023-04-24T03:36:17.384Z,74.54
2023-04-24T03:39:45.394Z,72.59
2023-04-24T03:43:12.974Z,73.88
2023-04-24T03:46:40.842Z,74.41
2023-04-24T03:50:08.811Z,72.94
2023-04-24T03:53:36.673Z,73.29
2023-04-24T03:57:02.881Z,71.75
2023-04-24T04:00:30.658Z,71.13
2023-04-24T04:04:04.797Z,70.54
2023-04-24T04:07:14.297Z,71.51
2023-04-24T04:10:42.015Z,71.78
2023-04-24T04:14:09.680Z,72.47
2023-04-24T04:17:37.638Z,73.20
2023-04-24T04:21:05.570Z,73.38
2023-04-24T04:24:33.389Z,73.27
2023-04-24T04:28:01.467Z,74.41
2023-04-24T04:31:29.382Z,73.80
2023-04-24T04:34:38.333Z,74.54
2023-04-24T04:37:46.785Z,74.25
2023-04-24T04:41:20.722Z,74.69
2023-04-24T04:44:48.495Z,74.65
2023-04-24T04:47:57.200Z,75.09
2023-04-24T04:51:24.904Z,75.58
2023-04-24T04:54:52.761Z,74.64
2023-04-24T04:58:20.650Z,74.91
2023-04-24T05:01:48.728Z,73.71
2023-04-24T05:05:17.797Z,76.25
2023-04-24T05:08:45.706Z,75.00
2023-04-24T05:12:13.505Z,74.37
2023-04-24T05:15:25.196Z,73.98
2023-04-24T05:18:53.294Z,74.05
2023-04-24T05:22:21.007Z,75.89
2023-04-24T05:25:29.925Z,74.53
2023-04-24T05:28:33.396Z,76.04
2023-04-24T05:32:01.223Z,76.39
2023-04-24T05:35:28.888Z,75.78
2023-04-24T05:38:56.967Z,74.98
2023-04-24T05:42:24.769Z,75.66
2023-04-24T05:45:52.596Z,75.40
2023-04-24T05:49:01.318Z,76.36
2023-04-24T05:52:29.336Z,74.70
2023-04-24T05:55:53.577Z,74.25
2023-04-24T05:59:21.341Z,73.87
2023-04-24T06:02:29.396Z,73.68
2023-04-24T06:05:37.498Z,74.32
2023-04-24T06:08:54.267Z,73.45
2023-04-24T06:11:23.205Z,73.57
2023-04-24T06:14:51.253Z,75.21
2023-04-24T06:17:59.850Z,75.02
2023-04-24T06:21:08.660Z,74.29
2023-04-24T06:23:57.739Z,73.08
2023-04-24T06:27:25.735Z,71.61
2023-04-24T06:30:53.691Z,72.30
2023-04-24T06:34:22.015Z,70.70
2023-04-24T06:37:50.952Z,69.84
2023-04-24T06:41:19.020Z,69.63
2023-04-24T06:44:46.932Z,68.97
2023-04-24T06:48:14.758Z,68.98
2023-04-24T06:51:42.853Z,68.60
2023-04-24T06:55:10.851Z,67.60
2023-04-24T06:58:39.187Z,67.48
2023-04-24T07:01:48.284Z,67.22
2023-04-24T07:05:16.087Z,66.84
2023-04-24T07:08:44.158Z,67.62
2023-04-24T07:12:12.082Z,66.55
2023-04-24T07:15:40.358Z,66.79
2023-04-24T07:19:09.202Z,66.29
2023-04-24T07:22:37.269Z,66.41
2023-04-24T07:26:05.228Z,66.50
2023-04-24T07:28:35.359Z,65.53
2023-04-24T07:31:44.261Z,63.81
2023-04-24T07:34:33.412Z,63.10
2023-04-24T07:37:27.249Z,63.44
2023-04-24T07:40:28.030Z,63.84
2023-04-24T07:42:57.298Z,64.02
2023-04-24T07:45:31.993Z,64.81
2023-04-24T07:48:40.605Z,64.98
2023-04-24T07:51:29.814Z,64.71
2023-04-24T07:54:01.596Z,64.60
2023-04-24T07:56:55.635Z,64.35
2023-04-24T08:00:11.641Z,65.01
2023-04-24T08:03:39.685Z,65.83
2023-04-24T08:07:07.482Z,66.58
2023-04-24T08:10:35.490Z,65.95
2023-04-24T08:14:03.370Z,66.24
2023-04-24T08:17:35.117Z,67.13
2023-04-24T08:21:02.960Z,67.36
2023-04-24T08:24:31.243Z,69.59
2023-04-24T08:27:59.363Z,75.09
2023-04-24T08:31:27.400Z,75.35
2023-04-24T08:34:55.174Z,76.08
2023-04-24T08:38:22.758Z,80.07
2023-04-24T08:41:31.456Z,80.28
2023-04-24T08:44:59.450Z,80.31
2023-04-24T08:48:31.834Z,80.18
2023-04-24T08:51:55.507Z,80.53
2023-04-24T08:55:05.297Z,81.94
2023-04-24T08:58:33.360Z,81.88
2023-04-24T09:02:01.672Z,81.78
2023-04-24T09:04:51.894Z,80.17
2023-04-24T09:08:19.829Z,82.34
2023-04-24T09:11:47.556Z,81.42
2023-04-24T09:15:15.557Z,80.33
2023-04-24T09:18:24.295Z,79.92
2023-04-24T09:21:52.002Z,81.22
2023-04-24T09:25:19.961Z,80.60
2023-04-24T09:28:47.924Z,80.83
2023-04-24T09:31:57.103Z,80.52
2023-04-24T09:35:25.165Z,81.36
2023-04-24T09:38:33.937Z,80.68
2023-04-24T09:41:42.856Z,82.38
2023-04-24T09:48:38.589Z,81.64
2023-04-24T09:52:06.414Z,82.79
2023-04-24T09:55:34.306Z,84.21
2023-04-24T09:59:02.854Z,87.42
2023-04-24T10:02:30.989Z,90.37
2023-04-24T10:05:58.781Z,92.03
2023-04-24T10:09:26.569Z,93.89
2023-04-24T10:12:54.560Z,94.51
2023-04-24T10:16:22.728Z,96.12
2023-04-24T10:19:50.584Z,96.42
2023-04-24T10:23:19.014Z,98.49
2023-04-24T10:26:47.072Z,100.00
2023-04-24T10:30:15.282Z,99.85
2023-04-24T10:33:43.593Z,100.00
2023-04-24T10:36:51.886Z,100.00
2023-04-24T10:40:19.670Z,100.00
2023-04-24T10:43:47.536Z,100.00
2023-04-24T10:47:15.288Z,99.93
2023-04-24T10:50:43.241Z,100.00
2023-04-24T10:54:11.241Z,100.00
2023-04-24T10:57:39.082Z,100.00
2023-04-24T11:01:07.102Z,100.00
2023-04-24T11:04:35.210Z,100.00
2023-04-24T11:08:03.290Z,100.00
2023-04-24T11:11:30.743Z,100.00
2023-04-24T11:14:58.948Z,100.00
2023-04-24T11:18:27.446Z,100.00
2023-04-24T11:21:55.758Z,100.00
2023-04-24T11:25:23.971Z,100.00
2023-04-24T11:28:32.358Z,100.00
2023-04-24T11:32:00.893Z,100.00
2023-04-24T11:35:28.686Z,100.00
2023-04-24T11:38:56.562Z,100.00
2023-04-24T11:42:04.804Z,99.74
2023-04-24T11:45:33.173Z,100.00
2023-04-24T11:49:01.363Z,100.00
2023-04-24T11:52:29.151Z,100.00
2023-04-24T11:55:57.031Z,100.00
2023-04-24T11:59:25.243Z,100.00
2023-04-24T12:02:34.416Z,100.00
2023-04-24T12:06:02.322Z,100.00
2023-04-24T12:09:17.762Z,99.70
2023-04-24T12:12:39.399Z,100.00
2023-04-24T12:15:48.420Z,100.00
2023-04-24T12:18:56.703Z,99.98
2023-04-24T12:22:05.458Z,98.37
2023-04-24T12:25:33.528Z,99.63
2023-04-24T12:29:01.079Z,97.91
2023-04-24T12:32:29.106Z,98.10
2023-04-24T12:35:56.919Z,99.23
2023-04-24T12:39:24.923Z,99.81
2023-04-24T12:42:53.010Z,99.97
2023-04-24T12:46:22.529Z,99.27
2023-04-24T12:49:49.212Z,98.83
2023-04-24T12:53:17.177Z,99.02
2023-04-24T12:56:45.030Z,100.00
2023-04-24T12:59:53.666Z,99.38
2023-04-24T13:03:21.844Z,100.00
2023-04-24T13:06:50.088Z,100.00
2023-04-24T13:10:18.159Z,99.59
2023-04-24T13:13:46.483Z,100.00
2023-04-24T13:17:14.341Z,98.11
2023-04-24T13:20:42.244Z,100.00
2023-04-24T13:23:32.021Z,100.00
2023-04-24T13:27:00.476Z,100.00
2023-04-24T13:30:09.597Z,98.48
2023-04-24T13:33:37.385Z,97.17
2023-04-24T13:37:05.490Z,96.83
2023-04-24T13:40:34.160Z,95.42
2023-04-24T13:44:03.310Z,96.31
2023-04-24T13:47:32.215Z,94.88
2023-04-24T13:51:00.127Z,94.47
2023-04-24T13:54:27.900Z,92.82
2023-04-24T13:57:55.911Z,92.85
2023-04-24T14:01:24.024Z,93.69
2023-04-24T14:04:32.952Z,90.87
2023-04-24T14:08:00.962Z,91.00
2023-04-24T14:11:28.945Z,91.40
2023-04-24T14:14:56.679Z,90.21
2023-04-24T14:18:25.331Z,90.13
2023-04-24T14:21:53.447Z,89.43
2023-04-24T14:25:02.433Z,91.70
2023-04-24T14:28:38.911Z,91.62
2023-04-24T14:31:48.730Z,93.31
2023-04-24T14:35:16.535Z,93.19
2023-04-24T14:38:44.837Z,93.60
2023-04-24T14:42:12.772Z,94.05
2023-04-24T14:45:40.676Z,95.18
2023-04-24T14:49:08.481Z,94.96
2023-04-24T14:52:36.322Z,94.48
2023-04-24T14:56:04.318Z,94.32
2023-04-24T14:59:20.589Z,96.47
2023-04-24T15:02:31.034Z,95.27
2023-04-24T15:05:20.407Z,95.22
2023-04-24T15:08:13.087Z,94.08
2023-04-24T15:11:21.477Z,93.97
2023-04-24T15:14:49.805Z,92.82
2023-04-24T15:17:57.922Z,94.06
2023-04-24T15:20:52.166Z,93.05
2023-04-24T15:23:42.340Z,91.82
2023-04-24T15:26:33.430Z,91.51
2023-04-24T15:29:41.881Z,89.92
2023-04-24T15:33:09.892Z,88.88
2023-04-24T15:36:19.250Z,89.02
2023-04-24T15:39:27.710Z,89.10
2023-04-24T15:42:52.341Z,90.06
2023-04-24T15:46:20.321Z,92.12
2023-04-24T15:49:36.340Z,90.29
2023-04-24T15:53:04.265Z,89.99
2023-04-24T15:55:56.140Z,89.90
2023-04-24T15:58:45.133Z,89.29
2023-04-24T16:02:13.432Z,90.66
2023-04-24T16:05:05.464Z,90.28
2023-04-24T16:08:33.775Z,91.78
2023-04-24T16:11:41.798Z,92.26
2023-04-24T16:14:50.858Z,92.37
2023-04-24T16:17:59.138Z,92.64
2023-04-24T16:21:27.234Z,93.09
2023-04-24T16:24:37.235Z,95.44
2023-04-24T16:27:46.458Z,95.41
2023-04-24T16:30:56.685Z,96.70
2023-04-24T16:34:24.695Z,99.54
2023-04-24T16:37:33.230Z,97.88
2023-04-24T16:40:41.410Z,97.55
2023-04-24T16:43:11.221Z,97.91
2023-04-24T16:46:05.655Z,98.16
2023-04-24T16:49:14.468Z,97.07
2023-04-24T16:52:42.454Z,99.77
2023-04-24T16:55:32.524Z,98.47
2023-04-24T16:58:24.732Z,98.49
2023-04-24T17:01:52.419Z,100.00
2023-04-24T17:05:08.583Z,100.00
2023-04-24T17:08:36.810Z,100.00
2023-04-24T17:12:04.964Z,99.92
2023-04-24T17:15:33.203Z,100.00
2023-04-24T17:19:01.258Z,100.00
2023-04-24T17:22:29.075Z,100.00
2023-04-24T17:25:56.987Z,100.00
2023-04-24T17:29:06.156Z,100.00
2023-04-24T17:32:34.255Z,100.00
2023-04-24T17:36:02.287Z,100.00
2023-04-24T17:39:30.514Z,100.00
2023-04-24T17:42:58.931Z,100.00
2023-04-24T17:46:27.168Z,100.00
2023-04-24T17:49:55.627Z,100.00
2023-04-24T17:53:23.704Z,100.00
2023-04-24T17:56:51.692Z,100.00
2023-04-24T18:00:19.784Z,100.00
2023-04-24T18:03:47.839Z,100.00
2023-04-24T18:07:15.803Z,100.00
2023-04-24T18:10:44.865Z,100.00
2023-04-24T18:14:11.497Z,100.00
2023-04-24T18:17:39.452Z,100.00
2023-04-24T18:20:49.254Z,100.00
2023-04-24T18:24:17.381Z,100.00
2023-04-24T18:27:45.335Z,100.00
2023-04-24T18:31:13.434Z,100.00
2023-04-24T18:34:41.780Z,100.00
2023-04-24T18:38:09.829Z,100.00
2023-04-24T18:41:38.021Z,100.00
2023-04-24T18:45:06.463Z,100.00
2023-04-24T18:48:14.431Z,100.00
2023-04-24T18:51:53.154Z,100.00
2023-04-24T18:55:10.699Z,100.00
2023-04-24T18:58:38.651Z,100.00
2023-04-24T19:02:06.831Z,100.00
2023-04-24T19:05:35.167Z,100.00
2023-04-24T19:08:43.726Z,100.00
2023-04-24T19:12:11.804Z,100.00
2023-04-24T19:15:40.094Z,100.00
2023-04-24T19:19:08.406Z,100.00
2023-04-24T19:22:36.734Z,100.00
2023-04-24T19:25:44.459Z,100.00
2023-04-24T19:28:52.714Z,100.00
2023-04-24T19:32:20.765Z,100.00
2023-04-24T19:35:48.622Z,100.00
2023-04-24T19:38:17.570Z,100.00
2023-04-24T19:41:45.529Z,100.00
2023-04-24T19:44:54.506Z,100.00
2023-04-24T19:47:30.188Z,100.00
2023-04-24T19:50:57.962Z,100.00
2023-04-24T19:53:26.773Z,100.00
2023-04-24T19:56:34.555Z,100.00
2023-04-24T19:59:03.789Z,100.00
2023-04-24T20:01:31.757Z,100.00
2023-04-24T20:04:41.784Z,100.00
2023-04-24T20:08:09.448Z,100.00
2023-04-24T20:11:37.771Z,100.00
2023-04-24T20:15:05.703Z,100.00
2023-04-24T20:18:33.754Z,100.00
2023-04-24T20:22:02.311Z,100.00
2023-04-24T20:25:30.323Z,100.00
2023-04-24T20:28:58.198Z,100.00
2023-04-24T20:32:26.245Z,100.00
2023-04-24T20:35:54.260Z,100.00
2023-04-24T20:39:22.294Z,100.00
2023-04-24T20:42:50.878Z,100.00
2023-04-24T20:46:19.133Z,100.00
2023-04-24T20:49:47.355Z,100.00
2023-04-24T20:53:22.300Z,100.00
2023-04-24T20:56:54.521Z,100.00
2023-04-24T21:00:22.324Z,100.00
2023-04-24T21:03:51.389Z,100.00
2023-04-24T21:07:18.828Z,100.00
2023-04-24T21:10:46.857Z,100.00
2023-04-24T21:14:15.482Z,100.00
2023-04-24T21:17:44.825Z,100.00
2023-04-24T21:21:12.753Z,100.00
2023-04-24T21:24:41.089Z,100.00
2023-04-24T21:27:30.661Z,100.00
2023-04-24T21:30:58.663Z,100.00
2023-04-24T21:34:26.516Z,100.00
2023-04-24T21:37:54.395Z,100.00
2023-04-24T21:41:22.407Z,100.00
2023-04-24T21:44:50.258Z,100.00
2023-04-24T21:48:17.975Z,100.00
2023-04-24T21:51:26.534Z,100.00
2023-04-24T21:54:54.628Z,100.00
2023-04-24T21:58:03.085Z,100.00
2023-04-24T22:01:31.226Z,100.00
2023-04-24T22:04:58.945Z,100.00
2023-04-24T22:08:27.031Z,100.00
2023-04-24T22:11:55.061Z,100.00
2023-04-24T22:15:22.849Z,100.00
2023-04-24T22:18:50.863Z,100.00
2023-04-24T22:22:18.754Z,100.00
2023-04-24T22:25:46.733Z,100.00
2023-04-24T22:29:14.653Z,100.00
2023-04-24T22:32:42.697Z,100.00
2023-04-24T22:36:10.441Z,100.00
2023-04-24T22:39:38.391Z,100.00
2023-04-24T22:43:06.300Z,100.00
2023-04-24T22:46:34.640Z,100.00
2023-04-24T22:50:02.491Z,100.00
2023-04-24T22:53:30.398Z,100.00
2023-04-24T22:56:58.604Z,100.00
2023-04-24T23:00:26.648Z,100.00
2023-04-24T23:03:55.102Z,100.00
2023-04-24T23:07:22.385Z,100.00
2023-04-24T23:10:32.441Z,100.00
2023-04-24T23:13:40.752Z,100.00
2023-04-24T23:17:08.771Z,100.00
2023-04-24T23:20:36.822Z,100.00
2023-04-24T23:24:04.947Z,100.00
2023-04-24T23:27:32.694Z,100.00
2023-04-24T23:30:55.734Z,100.00
2023-04-24T23:34:23.644Z,100.00
2023-04-24T23:37:51.541Z,100.00
2023-04-24T23:40:59.733Z,100.00
2023-04-24T23:44:27.790Z,100.00
2023-04-24T23:47:55.443Z,100.00
2023-04-24T23:51:04.263Z,100.00
2023-04-24T23:54:13.240Z,100.00
2023-04-24T23:57:41.560Z,100.00
